sensor_id;sensor_type;location;lat;lon;timestamp;temperature;humidity
1812;DHT22;904;47.814;11.134;2023-05-21T00:01:02;13.80;93.60
1812;DHT22;904;47.814;11.134;2023-05-21T00:03:31;13.70;93.20
1812;DHT22;904;47.814;11.134;2023-05-21T00:06:00;13.70;93.10
1812;DHT22;904;47.814;11.134;2023-05-21T00:08:28;13.70;93.10
1812;DHT22;904;47.814;11.134;2023-05-21T00:10:55;13.60;93.10
1812;DHT22;904;47.814;11.134;2023-05-21T00:13:22;13.50;93.40
1812;DHT22;904;47.814;11.134;2023-05-21T00:15:49;13.50;93.70
1812;DHT22;904;47.814;11.134;2023-05-21T00:18:16;13.50;93.80
1812;DHT22;904;47.814;11.134;2023-05-21T00:20:45;13.60;93.90
1812;DHT22;904;47.814;11.134;2023-05-21T00:23:12;13.50;93.90
1812;DHT22;904;47.814;11.134;2023-05-21T00:25:43;13.50;93.90
1812;DHT22;904;47.814;11.134;2023-05-21T00:28:11;13.50;94.10
1812;DHT22;904;47.814;11.134;2023-05-21T00:30:38;13.50;94.00
1812;DHT22;904;47.814;11.134;2023-05-21T00:33:07;13.50;94.00
1812;DHT22;904;47.814;11.134;2023-05-21T00:35:35;13.50;93.90
1812;DHT22;904;47.814;11.134;2023-05-21T00:38:03;13.50;93.80
1812;DHT22;904;47.814;11.134;2023-05-21T00:40:32;13.50;93.80
1812;DHT22;904;47.814;11.134;2023-05-21T00:42:59;13.50;93.80
1812;DHT22;904;47.814;11.134;2023-05-21T00:45:26;13.40;93.50
1812;DHT22;904;47.814;11.134;2023-05-21T00:47:54;13.40;93.50
1812;DHT22;904;47.814;11.134;2023-05-21T00:50:21;13.40;93.50
1812;DHT22;904;47.814;11.134;2023-05-21T00:52:49;13.40;93.60
1812;DHT22;904;47.814;11.134;2023-05-21T00:55:17;13.40;93.70
1812;DHT22;904;47.814;11.134;2023-05-21T00:57:45;13.40;93.90
1812;DHT22;904;47.814;11.134;2023-05-21T01:00:13;13.40;93.70
1812;DHT22;904;47.814;11.134;2023-05-21T01:02:41;13.30;93.60
1812;DHT22;904;47.814;11.134;2023-05-21T01:05:09;13.30;93.90
1812;DHT22;904;47.814;11.134;2023-05-21T01:07:38;13.30;94.20
1812;DHT22;904;47.814;11.134;2023-05-21T01:10:08;13.30;94.30
1812;DHT22;904;47.814;11.134;2023-05-21T01:12:38;13.30;94.50
1812;DHT22;904;47.814;11.134;2023-05-21T01:15:07;13.20;94.10
1812;DHT22;904;47.814;11.134;2023-05-21T01:17:35;13.10;94.10
1812;DHT22;904;47.814;11.134;2023-05-21T01:20:04;13.10;94.10
1812;DHT22;904;47.814;11.134;2023-05-21T01:22:41;13.00;94.40
1812;DHT22;904;47.814;11.134;2023-05-21T01:25:10;13.00;94.70
1812;DHT22;904;47.814;11.134;2023-05-21T01:27:37;12.90;94.70
1812;DHT22;904;47.814;11.134;2023-05-21T01:30:06;12.90;94.80
1812;DHT22;904;47.814;11.134;2023-05-21T01:32:37;12.90;94.80
1812;DHT22;904;47.814;11.134;2023-05-21T01:35:08;12.90;94.80
1812;DHT22;904;47.814;11.134;2023-05-21T01:37:42;12.90;95.00
1812;DHT22;904;47.814;11.134;2023-05-21T01:40:15;12.90;94.90
1812;DHT22;904;47.814;11.134;2023-05-21T01:42:44;12.80;94.70
1812;DHT22;904;47.814;11.134;2023-05-21T01:45:14;12.80;94.50
1812;DHT22;904;47.814;11.134;2023-05-21T01:47:45;12.70;94.50
1812;DHT22;904;47.814;11.134;2023-05-21T01:50:13;12.70;94.60
1812;DHT22;904;47.814;11.134;2023-05-21T01:52:48;12.70;95.00
1812;DHT22;904;47.814;11.134;2023-05-21T01:55:20;12.70;95.10
1812;DHT22;904;47.814;11.134;2023-05-21T01:57:49;12.60;95.40
1812;DHT22;904;47.814;11.134;2023-05-21T02:00:20;12.60;95.40
1812;DHT22;904;47.814;11.134;2023-05-21T02:02:50;12.60;95.50
1812;DHT22;904;47.814;11.134;2023-05-21T02:05:17;12.60;95.60
1812;DHT22;904;47.814;11.134;2023-05-21T02:07:44;12.60;95.60
1812;DHT22;904;47.814;11.134;2023-05-21T02:10:12;12.60;95.60
1812;DHT22;904;47.814;11.134;2023-05-21T02:12:40;12.60;95.80
1812;DHT22;904;47.814;11.134;2023-05-21T02:15:08;12.50;95.90
1812;DHT22;904;47.814;11.134;2023-05-21T02:17:35;12.50;96.10
1812;DHT22;904;47.814;11.134;2023-05-21T02:20:04;12.60;96.40
1812;DHT22;904;47.814;11.134;2023-05-21T02:22:36;12.60;96.40
1812;DHT22;904;47.814;11.134;2023-05-21T02:25:04;12.60;96.50
1812;DHT22;904;47.814;11.134;2023-05-21T02:27:31;12.60;96.50
1812;DHT22;904;47.814;11.134;2023-05-21T02:30:01;12.60;96.50
1812;DHT22;904;47.814;11.134;2023-05-21T02:32:28;12.60;96.40
1812;DHT22;904;47.814;11.134;2023-05-21T02:34:56;12.50;96.50
1812;DHT22;904;47.814;11.134;2023-05-21T02:37:24;12.50;96.70
1812;DHT22;904;47.814;11.134;2023-05-21T02:39:52;12.50;96.90
1812;DHT22;904;47.814;11.134;2023-05-21T02:42:20;12.50;97.00
1812;DHT22;904;47.814;11.134;2023-05-21T02:44:47;12.50;97.20
1812;DHT22;904;47.814;11.134;2023-05-21T02:47:16;12.50;97.20
1812;DHT22;904;47.814;11.134;2023-05-21T02:49:43;12.50;97.00
1812;DHT22;904;47.814;11.134;2023-05-21T02:52:12;12.50;96.70
1812;DHT22;904;47.814;11.134;2023-05-21T02:54:39;12.50;96.90
1812;DHT22;904;47.814;11.134;2023-05-21T02:57:06;12.50;97.00
1812;DHT22;904;47.814;11.134;2023-05-21T02:59:33;12.40;97.30
1812;DHT22;904;47.814;11.134;2023-05-21T03:02:00;12.40;97.60
1812;DHT22;904;47.814;11.134;2023-05-21T03:04:28;12.40;98.00
1812;DHT22;904;47.814;11.134;2023-05-21T03:06:55;12.40;98.00
1812;DHT22;904;47.814;11.134;2023-05-21T03:09:23;12.40;97.60
1812;DHT22;904;47.814;11.134;2023-05-21T03:11:50;12.30;97.40
1812;DHT22;904;47.814;11.134;2023-05-21T03:14:17;12.30;97.50
1812;DHT22;904;47.814;11.134;2023-05-21T03:16:44;12.30;97.60
1812;DHT22;904;47.814;11.134;2023-05-21T03:19:11;12.30;97.60
1812;DHT22;904;47.814;11.134;2023-05-21T03:21:40;12.30;97.40
1812;DHT22;904;47.814;11.134;2023-05-21T03:24:07;12.30;97.50
1812;DHT22;904;47.814;11.134;2023-05-21T03:26:34;12.30;97.50
1812;DHT22;904;47.814;11.134;2023-05-21T03:29:01;12.30;97.80
1812;DHT22;904;47.814;11.134;2023-05-21T03:31:28;12.30;97.90
1812;DHT22;904;47.814;11.134;2023-05-21T03:33:55;12.30;98.20
1812;DHT22;904;47.814;11.134;2023-05-21T03:36:22;12.30;98.40
1812;DHT22;904;47.814;11.134;2023-05-21T03:38:55;12.40;98.00
1812;DHT22;904;47.814;11.134;2023-05-21T03:41:22;12.30;97.60
1812;DHT22;904;47.814;11.134;2023-05-21T03:43:49;12.30;97.60
1812;DHT22;904;47.814;11.134;2023-05-21T03:46:21;12.30;97.70
1812;DHT22;904;47.814;11.134;2023-05-21T03:48:48;12.40;97.70
1812;DHT22;904;47.814;11.134;2023-05-21T03:51:15;12.40;97.80
1812;DHT22;904;47.814;11.134;2023-05-21T03:53:43;12.40;97.60
1812;DHT22;904;47.814;11.134;2023-05-21T03:56:11;12.40;97.60
1812;DHT22;904;47.814;11.134;2023-05-21T03:58:38;12.50;97.30
1812;DHT22;904;47.814;11.134;2023-05-21T04:01:05;12.40;97.20
1812;DHT22;904;47.814;11.134;2023-05-21T04:03:33;12.40;97.30
1812;DHT22;904;47.814;11.134;2023-05-21T04:06:00;12.40;97.40
1812;DHT22;904;47.814;11.134;2023-05-21T04:08:29;12.40;97.30
1812;DHT22;904;47.814;11.134;2023-05-21T04:10:56;12.40;97.30
1812;DHT22;904;47.814;11.134;2023-05-21T04:13:24;12.40;97.40
1812;DHT22;904;47.814;11.134;2023-05-21T04:15:52;12.40;97.50
1812;DHT22;904;47.814;11.134;2023-05-21T04:18:20;12.50;97.50
1812;DHT22;904;47.814;11.134;2023-05-21T04:20:50;12.50;97.60
1812;DHT22;904;47.814;11.134;2023-05-21T04:23:17;12.50;97.70
1812;DHT22;904;47.814;11.134;2023-05-21T04:25:44;12.50;97.90
1812;DHT22;904;47.814;11.134;2023-05-21T04:28:15;12.60;98.00
1812;DHT22;904;47.814;11.134;2023-05-21T04:30:46;12.60;97.60
1812;DHT22;904;47.814;11.134;2023-05-21T04:33:14;12.60;97.80
1812;DHT22;904;47.814;11.134;2023-05-21T04:35:42;12.60;97.50
1812;DHT22;904;47.814;11.134;2023-05-21T04:38:10;12.60;97.60
1812;DHT22;904;47.814;11.134;2023-05-21T04:40:38;12.60;97.60
1812;DHT22;904;47.814;11.134;2023-05-21T04:43:06;12.60;97.50
1812;DHT22;904;47.814;11.134;2023-05-21T04:45:33;12.70;97.40
1812;DHT22;904;47.814;11.134;2023-05-21T04:48:02;12.80;97.10
1812;DHT22;904;47.814;11.134;2023-05-21T04:50:29;12.80;97.10
1812;DHT22;904;47.814;11.134;2023-05-21T04:52:56;12.80;96.90
1812;DHT22;904;47.814;11.134;2023-05-21T04:55:24;12.80;96.70
1812;DHT22;904;47.814;11.134;2023-05-21T04:57:52;12.80;96.70
1812;DHT22;904;47.814;11.134;2023-05-21T05:00:19;12.80;96.80
1812;DHT22;904;47.814;11.134;2023-05-21T05:02:46;12.80;97.20
1812;DHT22;904;47.814;11.134;2023-05-21T05:05:14;12.80;96.90
1812;DHT22;904;47.814;11.134;2023-05-21T05:07:41;12.90;96.80
1812;DHT22;904;47.814;11.134;2023-05-21T05:10:08;12.90;96.70
1812;DHT22;904;47.814;11.134;2023-05-21T05:12:35;12.90;97.10
1812;DHT22;904;47.814;11.134;2023-05-21T05:15:03;13.00;97.30
1812;DHT22;904;47.814;11.134;2023-05-21T05:17:31;13.10;97.40
1812;DHT22;904;47.814;11.134;2023-05-21T05:19:58;13.10;97.40
1812;DHT22;904;47.814;11.134;2023-05-21T05:22:27;13.20;97.20
1812;DHT22;904;47.814;11.134;2023-05-21T05:24:54;13.30;97.00
1812;DHT22;904;47.814;11.134;2023-05-21T05:27:21;13.40;96.70
1812;DHT22;904;47.814;11.134;2023-05-21T05:29:48;13.50;96.40
1812;DHT22;904;47.814;11.134;2023-05-21T05:32:15;13.60;96.20
1812;DHT22;904;47.814;11.134;2023-05-21T05:34:44;13.70;95.90
1812;DHT22;904;47.814;11.134;2023-05-21T05:37:11;13.80;95.40
1812;DHT22;904;47.814;11.134;2023-05-21T05:39:39;13.90;95.20
1812;DHT22;904;47.814;11.134;2023-05-21T05:42:07;14.00;95.60
1812;DHT22;904;47.814;11.134;2023-05-21T05:44:34;14.10;94.90
1812;DHT22;904;47.814;11.134;2023-05-21T05:47:00;14.10;94.80
1812;DHT22;904;47.814;11.134;2023-05-21T05:49:27;14.20;95.00
1812;DHT22;904;47.814;11.134;2023-05-21T05:51:54;14.30;94.40
1812;DHT22;904;47.814;11.134;2023-05-21T05:54:23;14.40;94.10
1812;DHT22;904;47.814;11.134;2023-05-21T05:56:51;14.40;93.80
1812;DHT22;904;47.814;11.134;2023-05-21T05:59:19;14.50;94.00
1812;DHT22;904;47.814;11.134;2023-05-21T06:01:46;14.60;94.30
1812;DHT22;904;47.814;11.134;2023-05-21T06:04:15;14.70;94.00
1812;DHT22;904;47.814;11.134;2023-05-21T06:06:42;14.80;93.80
1812;DHT22;904;47.814;11.134;2023-05-21T06:09:10;14.90;93.40
1812;DHT22;904;47.814;11.134;2023-05-21T06:11:37;15.00;93.40
1812;DHT22;904;47.814;11.134;2023-05-21T06:14:06;15.10;93.50
1812;DHT22;904;47.814;11.134;2023-05-21T06:16:33;15.20;93.70
1812;DHT22;904;47.814;11.134;2023-05-21T06:19:01;15.40;92.80
1812;DHT22;904;47.814;11.134;2023-05-21T06:21:29;15.40;92.30
1812;DHT22;904;47.814;11.134;2023-05-21T06:23:58;15.60;92.20
1812;DHT22;904;47.814;11.134;2023-05-21T06:26:25;15.70;92.40
1812;DHT22;904;47.814;11.134;2023-05-21T06:28:52;15.90;92.10
1812;DHT22;904;47.814;11.134;2023-05-21T06:31:21;16.00;91.70
1812;DHT22;904;47.814;11.134;2023-05-21T06:33:51;16.20;91.50
1812;DHT22;904;47.814;11.134;2023-05-21T06:36:18;16.30;91.30
1812;DHT22;904;47.814;11.134;2023-05-21T06:38:44;16.40;90.40
1812;DHT22;904;47.814;11.134;2023-05-21T06:41:12;16.60;90.40
1812;DHT22;904;47.814;11.134;2023-05-21T06:43:39;16.80;90.60
1812;DHT22;904;47.814;11.134;2023-05-21T06:46:06;17.00;90.40
1812;DHT22;904;47.814;11.134;2023-05-21T06:48:34;17.30;90.00
1812;DHT22;904;47.814;11.134;2023-05-21T06:51:01;17.50;87.20
1812;DHT22;904;47.814;11.134;2023-05-21T06:53:28;17.70;86.00
1812;DHT22;904;47.814;11.134;2023-05-21T06:55:55;17.90;83.20
1812;DHT22;904;47.814;11.134;2023-05-21T06:58:40;18.10;83.40
1812;DHT22;904;47.814;11.134;2023-05-21T07:01:07;18.40;82.70
1812;DHT22;904;47.814;11.134;2023-05-21T07:03:36;18.70;79.00
1812;DHT22;904;47.814;11.134;2023-05-21T07:06:03;18.80;74.30
1812;DHT22;904;47.814;11.134;2023-05-21T07:08:30;19.00;73.30
1812;DHT22;904;47.814;11.134;2023-05-21T07:10:57;19.20;74.20
1812;DHT22;904;47.814;11.134;2023-05-21T07:13:24;19.40;71.60
1812;DHT22;904;47.814;11.134;2023-05-21T07:15:51;19.70;67.80
1812;DHT22;904;47.814;11.134;2023-05-21T07:18:18;19.90;65.70
1812;DHT22;904;47.814;11.134;2023-05-21T07:20:46;20.20;65.70
1812;DHT22;904;47.814;11.134;2023-05-21T07:23:13;20.40;65.30
1812;DHT22;904;47.814;11.134;2023-05-21T07:25:40;20.60;61.90
1812;DHT22;904;47.814;11.134;2023-05-21T07:28:07;20.80;60.60
1812;DHT22;904;47.814;11.134;2023-05-21T07:30:34;21.00;59.10
1812;DHT22;904;47.814;11.134;2023-05-21T07:33:01;21.20;58.30
1812;DHT22;904;47.814;11.134;2023-05-21T07:35:28;21.30;59.10
1812;DHT22;904;47.814;11.134;2023-05-21T07:37:56;21.50;57.50
1812;DHT22;904;47.814;11.134;2023-05-21T07:40:23;21.60;57.10
1812;DHT22;904;47.814;11.134;2023-05-21T07:42:51;21.70;57.90
1812;DHT22;904;47.814;11.134;2023-05-21T07:45:18;21.90;59.40
1812;DHT22;904;47.814;11.134;2023-05-21T07:47:45;22.20;57.40
1812;DHT22;904;47.814;11.134;2023-05-21T07:50:19;22.40;57.60
1812;DHT22;904;47.814;11.134;2023-05-21T07:52:57;22.60;58.90
1812;DHT22;904;47.814;11.134;2023-05-21T07:55:24;22.80;56.40
1812;DHT22;904;47.814;11.134;2023-05-21T07:57:50;23.00;55.80
1812;DHT22;904;47.814;11.134;2023-05-21T08:00:17;23.10;54.70
1812;DHT22;904;47.814;11.134;2023-05-21T08:02:44;23.20;53.60
1812;DHT22;904;47.814;11.134;2023-05-21T08:05:11;23.20;53.70
1812;DHT22;904;47.814;11.134;2023-05-21T08:07:40;23.30;54.20
1812;DHT22;904;47.814;11.134;2023-05-21T08:10:09;23.40;55.50
1812;DHT22;904;47.814;11.134;2023-05-21T08:12:36;23.50;55.30
1812;DHT22;904;47.814;11.134;2023-05-21T08:15:06;23.70;54.20
1812;DHT22;904;47.814;11.134;2023-05-21T08:17:33;23.90;53.00
1812;DHT22;904;47.814;11.134;2023-05-21T08:20:00;24.00;53.00
1812;DHT22;904;47.814;11.134;2023-05-21T08:22:28;24.20;53.50
1812;DHT22;904;47.814;11.134;2023-05-21T08:24:55;24.30;52.70
1812;DHT22;904;47.814;11.134;2023-05-21T08:27:23;24.50;52.40
1812;DHT22;904;47.814;11.134;2023-05-21T08:29:50;24.60;51.80
1812;DHT22;904;47.814;11.134;2023-05-21T08:32:17;24.70;51.50
1812;DHT22;904;47.814;11.134;2023-05-21T08:34:44;24.90;50.10
1812;DHT22;904;47.814;11.134;2023-05-21T08:37:11;25.00;49.90
1812;DHT22;904;47.814;11.134;2023-05-21T08:39:38;25.20;49.70
1812;DHT22;904;47.814;11.134;2023-05-21T08:42:10;25.30;50.20
1812;DHT22;904;47.814;11.134;2023-05-21T08:44:45;25.50;49.30
1812;DHT22;904;47.814;11.134;2023-05-21T08:47:18;25.80;50.00
1812;DHT22;904;47.814;11.134;2023-05-21T08:49:47;25.90;50.10
1812;DHT22;904;47.814;11.134;2023-05-21T08:52:16;26.20;50.10
1812;DHT22;904;47.814;11.134;2023-05-21T08:54:44;26.30;48.90
1812;DHT22;904;47.814;11.134;2023-05-21T08:57:13;26.40;49.00
1812;DHT22;904;47.814;11.134;2023-05-21T08:59:42;26.60;48.10
1812;DHT22;904;47.814;11.134;2023-05-21T09:02:11;26.80;48.50
1812;DHT22;904;47.814;11.134;2023-05-21T09:04:39;26.90;47.90
1812;DHT22;904;47.814;11.134;2023-05-21T09:07:09;27.00;48.20
1812;DHT22;904;47.814;11.134;2023-05-21T09:09:40;27.10;47.50
1812;DHT22;904;47.814;11.134;2023-05-21T09:12:08;27.20;45.80
1812;DHT22;904;47.814;11.134;2023-05-21T09:14:48;27.20;46.80
1812;DHT22;904;47.814;11.134;2023-05-21T09:17:16;27.30;47.60
1812;DHT22;904;47.814;11.134;2023-05-21T09:20:07;27.40;46.80
1812;DHT22;904;47.814;11.134;2023-05-21T09:22:36;27.50;46.40
1812;DHT22;904;47.814;11.134;2023-05-21T09:25:05;27.60;46.40
1812;DHT22;904;47.814;11.134;2023-05-21T09:27:32;27.60;47.00
1812;DHT22;904;47.814;11.134;2023-05-21T09:30:01;27.70;45.90
1812;DHT22;904;47.814;11.134;2023-05-21T09:32:28;27.70;45.20
1812;DHT22;904;47.814;11.134;2023-05-21T09:34:55;27.80;45.80
1812;DHT22;904;47.814;11.134;2023-05-21T09:37:23;28.00;45.90
1812;DHT22;904;47.814;11.134;2023-05-21T09:39:52;28.10;45.80
1812;DHT22;904;47.814;11.134;2023-05-21T09:42:20;28.20;44.40
1812;DHT22;904;47.814;11.134;2023-05-21T09:44:47;28.30;44.40
1812;DHT22;904;47.814;11.134;2023-05-21T09:47:20;28.40;44.70
1812;DHT22;904;47.814;11.134;2023-05-21T09:49:48;28.50;43.70
1812;DHT22;904;47.814;11.134;2023-05-21T09:52:22;28.60;44.40
1812;DHT22;904;47.814;11.134;2023-05-21T09:54:51;28.70;44.00
1812;DHT22;904;47.814;11.134;2023-05-21T09:57:23;28.80;42.40
1812;DHT22;904;47.814;11.134;2023-05-21T09:59:50;28.90;43.40
1812;DHT22;904;47.814;11.134;2023-05-21T10:02:20;28.90;40.80
1812;DHT22;904;47.814;11.134;2023-05-21T10:04:49;28.90;40.60
1812;DHT22;904;47.814;11.134;2023-05-21T10:07:18;28.90;41.20
1812;DHT22;904;47.814;11.134;2023-05-21T10:09:46;29.00;42.00
1812;DHT22;904;47.814;11.134;2023-05-21T10:12:17;29.10;42.10
1812;DHT22;904;47.814;11.134;2023-05-21T10:14:47;29.10;40.00
1812;DHT22;904;47.814;11.134;2023-05-21T10:17:19;29.10;40.30
1812;DHT22;904;47.814;11.134;2023-05-21T10:19:47;29.00;39.30
1812;DHT22;904;47.814;11.134;2023-05-21T10:22:16;28.90;39.20
1812;DHT22;904;47.814;11.134;2023-05-21T10:24:43;29.00;39.10
1812;DHT22;904;47.814;11.134;2023-05-21T10:27:12;28.90;34.40
1812;DHT22;904;47.814;11.134;2023-05-21T10:29:40;28.80;37.70
1812;DHT22;904;47.814;11.134;2023-05-21T10:32:11;28.70;37.10
1812;DHT22;904;47.814;11.134;2023-05-21T10:34:40;28.60;33.60
1812;DHT22;904;47.814;11.134;2023-05-21T10:37:09;28.60;34.40
1812;DHT22;904;47.814;11.134;2023-05-21T10:39:38;28.50;35.00
1812;DHT22;904;47.814;11.134;2023-05-21T10:42:15;28.50;36.00
1812;DHT22;904;47.814;11.134;2023-05-21T10:44:57;28.40;36.70
1812;DHT22;904;47.814;11.134;2023-05-21T10:47:46;28.40;36.90
1812;DHT22;904;47.814;11.134;2023-05-21T10:50:32;28.40;38.10
1812;DHT22;904;47.814;11.134;2023-05-21T10:53:12;28.40;37.00
1812;DHT22;904;47.814;11.134;2023-05-21T10:55:49;28.50;37.00
1812;DHT22;904;47.814;11.134;2023-05-21T10:58:36;28.60;38.90
1812;DHT22;904;47.814;11.134;2023-05-21T11:01:06;28.60;36.20
1812;DHT22;904;47.814;11.134;2023-05-21T11:03:34;28.60;35.80
1812;DHT22;904;47.814;11.134;2023-05-21T11:06:03;28.50;35.40
1812;DHT22;904;47.814;11.134;2023-05-21T11:08:31;28.40;35.40
1812;DHT22;904;47.814;11.134;2023-05-21T11:11:01;28.40;37.60
1812;DHT22;904;47.814;11.134;2023-05-21T11:13:43;28.40;36.40
1812;DHT22;904;47.814;11.134;2023-05-21T11:16:14;28.30;35.00
1812;DHT22;904;47.814;11.134;2023-05-21T11:18:58;28.30;36.70
1812;DHT22;904;47.814;11.134;2023-05-21T11:21:30;28.20;34.90
1812;DHT22;904;47.814;11.134;2023-05-21T11:24:17;28.20;35.00
1812;DHT22;904;47.814;11.134;2023-05-21T11:27:01;28.10;35.00
1812;DHT22;904;47.814;11.134;2023-05-21T11:29:37;28.20;36.40
1812;DHT22;904;47.814;11.134;2023-05-21T11:32:09;28.20;37.90
1812;DHT22;904;47.814;11.134;2023-05-21T11:34:39;28.30;37.70
1812;DHT22;904;47.814;11.134;2023-05-21T11:37:28;28.40;37.10
1812;DHT22;904;47.814;11.134;2023-05-21T11:39:57;28.60;38.40
1812;DHT22;904;47.814;11.134;2023-05-21T11:42:32;28.70;39.30
1812;DHT22;904;47.814;11.134;2023-05-21T11:45:00;28.80;37.60
1812;DHT22;904;47.814;11.134;2023-05-21T11:47:29;28.90;34.40
1812;DHT22;904;47.814;11.134;2023-05-21T11:49:59;28.90;35.40
1812;DHT22;904;47.814;11.134;2023-05-21T11:52:29;29.00;36.70
1812;DHT22;904;47.814;11.134;2023-05-21T11:54:57;29.20;37.10
1812;DHT22;904;47.814;11.134;2023-05-21T11:57:27;29.40;36.60
1812;DHT22;904;47.814;11.134;2023-05-21T11:59:56;29.50;34.30
1812;DHT22;904;47.814;11.134;2023-05-21T12:02:25;29.60;35.30
1812;DHT22;904;47.814;11.134;2023-05-21T12:04:52;29.70;35.50
1812;DHT22;904;47.814;11.134;2023-05-21T12:07:20;29.70;32.50
1812;DHT22;904;47.814;11.134;2023-05-21T12:09:49;29.80;32.60
1812;DHT22;904;47.814;11.134;2023-05-21T12:12:18;29.80;34.10
1812;DHT22;904;47.814;11.134;2023-05-21T12:14:47;29.80;34.60
1812;DHT22;904;47.814;11.134;2023-05-21T12:17:15;29.80;34.20
1812;DHT22;904;47.814;11.134;2023-05-21T12:19:43;29.80;33.50
1812;DHT22;904;47.814;11.134;2023-05-21T12:22:11;29.70;33.00
1812;DHT22;904;47.814;11.134;2023-05-21T12:24:39;29.70;33.20
1812;DHT22;904;47.814;11.134;2023-05-21T12:27:10;29.80;35.10
1812;DHT22;904;47.814;11.134;2023-05-21T12:29:38;29.70;31.50
1812;DHT22;904;47.814;11.134;2023-05-21T12:32:08;29.70;32.10
1812;DHT22;904;47.814;11.134;2023-05-21T12:34:40;29.70;31.80
1812;DHT22;904;47.814;11.134;2023-05-21T12:37:10;29.60;31.80
1812;DHT22;904;47.814;11.134;2023-05-21T12:39:39;29.70;33.20
1812;DHT22;904;47.814;11.134;2023-05-21T12:42:06;29.60;31.60
1812;DHT22;904;47.814;11.134;2023-05-21T12:44:34;29.60;33.80
1812;DHT22;904;47.814;11.134;2023-05-21T12:47:01;29.50;31.50
1812;DHT22;904;47.814;11.134;2023-05-21T12:49:35;29.40;31.70
1812;DHT22;904;47.814;11.134;2023-05-21T12:52:08;29.20;32.00
1812;DHT22;904;47.814;11.134;2023-05-21T12:54:36;29.10;32.30
1812;DHT22;904;47.814;11.134;2023-05-21T12:57:08;28.90;32.80
1812;DHT22;904;47.814;11.134;2023-05-21T12:59:47;28.80;33.00
1812;DHT22;904;47.814;11.134;2023-05-21T13:02:22;28.70;35.30
1812;DHT22;904;47.814;11.134;2023-05-21T13:04:56;28.70;33.70
1812;DHT22;904;47.814;11.134;2023-05-21T13:07:23;28.60;33.30
1812;DHT22;904;47.814;11.134;2023-05-21T13:09:51;28.60;33.00
1812;DHT22;904;47.814;11.134;2023-05-21T13:12:19;28.60;33.70
1812;DHT22;904;47.814;11.134;2023-05-21T13:14:49;28.60;33.00
1812;DHT22;904;47.814;11.134;2023-05-21T13:17:17;28.60;33.10
1812;DHT22;904;47.814;11.134;2023-05-21T13:20:06;28.70;33.40
1812;DHT22;904;47.814;11.134;2023-05-21T13:22:33;28.60;32.80
1812;DHT22;904;47.814;11.134;2023-05-21T13:25:01;28.70;33.60
1812;DHT22;904;47.814;11.134;2023-05-21T13:27:28;28.70;33.90
1812;DHT22;904;47.814;11.134;2023-05-21T13:29:56;28.80;33.50
1812;DHT22;904;47.814;11.134;2023-05-21T13:32:23;28.80;34.20
1812;DHT22;904;47.814;11.134;2023-05-21T13:34:50;28.80;33.00
1812;DHT22;904;47.814;11.134;2023-05-21T13:37:17;28.80;34.20
1812;DHT22;904;47.814;11.134;2023-05-21T13:39:45;28.80;33.80
1812;DHT22;904;47.814;11.134;2023-05-21T13:42:12;28.80;32.40
1812;DHT22;904;47.814;11.134;2023-05-21T13:44:39;28.80;33.50
1812;DHT22;904;47.814;11.134;2023-05-21T13:47:07;28.90;34.70
1812;DHT22;904;47.814;11.134;2023-05-21T13:49:36;28.90;33.80
1812;DHT22;904;47.814;11.134;2023-05-21T13:52:04;29.00;34.60
1812;DHT22;904;47.814;11.134;2023-05-21T13:54:31;28.90;32.60
1812;DHT22;904;47.814;11.134;2023-05-21T13:57:00;28.90;33.80
1812;DHT22;904;47.814;11.134;2023-05-21T13:59:28;29.00;35.10
1812;DHT22;904;47.814;11.134;2023-05-21T14:01:55;29.10;34.60
1812;DHT22;904;47.814;11.134;2023-05-21T14:04:24;29.10;34.30
1812;DHT22;904;47.814;11.134;2023-05-21T14:06:51;29.20;33.20
1812;DHT22;904;47.814;11.134;2023-05-21T14:09:18;29.10;33.70
1812;DHT22;904;47.814;11.134;2023-05-21T14:11:46;29.10;33.10
1812;DHT22;904;47.814;11.134;2023-05-21T14:14:13;29.00;33.80
1812;DHT22;904;47.814;11.134;2023-05-21T14:16:44;29.00;32.50
1812;DHT22;904;47.814;11.134;2023-05-21T14:19:12;28.90;31.20
1812;DHT22;904;47.814;11.134;2023-05-21T14:21:40;28.80;30.20
1812;DHT22;904;47.814;11.134;2023-05-21T14:24:12;28.70;30.80
1812;DHT22;904;47.814;11.134;2023-05-21T14:26:40;28.60;31.40
1812;DHT22;904;47.814;11.134;2023-05-21T14:29:07;28.60;30.50
1812;DHT22;904;47.814;11.134;2023-05-21T14:31:35;28.50;31.20
1812;DHT22;904;47.814;11.134;2023-05-21T14:34:02;28.50;32.50
1812;DHT22;904;47.814;11.134;2023-05-21T14:36:31;28.50;31.30
1812;DHT22;904;47.814;11.134;2023-05-21T14:39:00;28.50;30.60
1812;DHT22;904;47.814;11.134;2023-05-21T14:41:28;28.40;30.40
1812;DHT22;904;47.814;11.134;2023-05-21T14:43:55;28.30;29.90
1812;DHT22;904;47.814;11.134;2023-05-21T14:46:22;28.30;31.10
1812;DHT22;904;47.814;11.134;2023-05-21T14:48:49;28.30;32.00
1812;DHT22;904;47.814;11.134;2023-05-21T14:51:17;28.30;32.40
1812;DHT22;904;47.814;11.134;2023-05-21T14:53:44;28.30;31.60
1812;DHT22;904;47.814;11.134;2023-05-21T14:56:13;28.30;31.40
1812;DHT22;904;47.814;11.134;2023-05-21T14:58:40;28.20;29.10
1812;DHT22;904;47.814;11.134;2023-05-21T15:01:07;28.00;30.00
1812;DHT22;904;47.814;11.134;2023-05-21T15:03:34;27.90;30.90
1812;DHT22;904;47.814;11.134;2023-05-21T15:06:01;27.80;30.10
1812;DHT22;904;47.814;11.134;2023-05-21T15:08:28;27.80;30.90
1812;DHT22;904;47.814;11.134;2023-05-21T15:10:56;27.70;31.00
1812;DHT22;904;47.814;11.134;2023-05-21T15:13:24;27.70;30.00
1812;DHT22;904;47.814;11.134;2023-05-21T15:15:52;27.60;30.10
1812;DHT22;904;47.814;11.134;2023-05-21T15:18:19;27.50;30.30
1812;DHT22;904;47.814;11.134;2023-05-21T15:20:46;27.50;29.80
1812;DHT22;904;47.814;11.134;2023-05-21T15:23:13;27.40;31.30
1812;DHT22;904;47.814;11.134;2023-05-21T15:25:41;27.30;31.30
1812;DHT22;904;47.814;11.134;2023-05-21T15:28:08;27.20;32.20
1812;DHT22;904;47.814;11.134;2023-05-21T15:30:37;27.10;32.50
1812;DHT22;904;47.814;11.134;2023-05-21T15:33:04;27.00;32.80
1812;DHT22;904;47.814;11.134;2023-05-21T15:35:32;26.90;33.00
1812;DHT22;904;47.814;11.134;2023-05-21T15:37:58;26.80;33.20
1812;DHT22;904;47.814;11.134;2023-05-21T15:40:26;26.70;34.10
1812;DHT22;904;47.814;11.134;2023-05-21T15:42:53;26.70;32.80
1812;DHT22;904;47.814;11.134;2023-05-21T15:45:20;26.60;34.30
1812;DHT22;904;47.814;11.134;2023-05-21T15:47:48;26.60;33.00
1812;DHT22;904;47.814;11.134;2023-05-21T15:50:15;26.60;33.60
1812;DHT22;904;47.814;11.134;2023-05-21T15:52:42;26.60;33.00
1812;DHT22;904;47.814;11.134;2023-05-21T15:55:10;26.60;33.60
1812;DHT22;904;47.814;11.134;2023-05-21T15:57:38;26.60;32.90
1812;DHT22;904;47.814;11.134;2023-05-21T16:00:06;26.50;33.10
1812;DHT22;904;47.814;11.134;2023-05-21T16:02:34;26.50;33.70
1812;DHT22;904;47.814;11.134;2023-05-21T16:05:02;26.50;33.70
1812;DHT22;904;47.814;11.134;2023-05-21T16:07:29;26.40;34.10
1812;DHT22;904;47.814;11.134;2023-05-21T16:09:56;26.40;35.10
1812;DHT22;904;47.814;11.134;2023-05-21T16:12:24;26.30;34.20